Winterport, Maine
Current Conditions -  °F | °C
As of 1:53 AM on Sunday 23 Nov 2014 (Local Time) from KBGR Reporting Station
Overcast Overcast  
Wind Chill:   Ceiling: 3900
Heat Index:   Visibility: 10mi
Dew Point: -8°   Wind: 7mph
Humidity: 46%   Direction: 220°SW
Pressure: 29.92"   Gusts: NA
Location:  44.65°N, 68.86°W
Report Text: KBGR 230653Z 22006KT 10SM BKN039 OVC060 03/M08 A2992 RMK AO2 SLP134 T00281078
Loading
Personal Weather Stations






























Interactive Weather Map New forecast layout! Learn more

10-Day Weather Forecast

Advertisements
Track Severe Weather on mobile